Time;durP1;ratioP1;P1;durP2;ratioP2;P2;SDS_P1;SDS_P2;PMS_P1;PMS_P2;Temp;Humidity;BMP_temperature;BMP_pressure;BME280_temperature;BME280_humidity;BME280_pressure;Samples;Min_cycle;Max_cycle;Signal;HPM_P1;HPM_P2
2022/03/17 00:00:29;;;;;;;91.38;47.67;;;;;;;8.89;50.59;102243.28;5028233;28;20042;-74
2022/03/17 00:02:56;;;;;;;86.10;45.92;;;;;;;8.81;51.27;102239.31;5027108;28;20045;-74
2022/03/17 00:05:23;;;;;;;87.68;46.08;;;;;;;8.49;51.76;102233.63;5022720;28;20386;-74
2022/03/17 00:07:49;;;;;;;82.88;46.90;;;;;;;9.18;50.02;102230.41;5018084;28;20145;-74
2022/03/17 00:10:16;;;;;;;86.65;45.42;;;;;;;8.58;51.63;102232.13;5011620;28;20156;-74
2022/03/17 00:12:44;;;;;;;83.10;45.30;;;;;;;8.42;52.08;102227.00;5029551;28;20464;-74
2022/03/17 00:15:11;;;;;;;90.28;47.00;;;;;;;8.59;51.84;102245.38;5030530;28;20072;-74
2022/03/17 00:17:40;;;;;;;81.28;43.80;;;;;;;8.42;52.51;102247.56;5030186;28;20050;-74
2022/03/17 00:20:10;;;;;;;87.30;47.42;;;;;;;8.43;51.89;102239.41;5025780;28;20072;-74
2022/03/17 00:22:37;;;;;;;87.97;45.20;;;;;;;8.84;51.26;102244.44;5024630;28;20112;-74
2022/03/17 00:25:05;;;;;;;82.78;44.72;;;;;;;9.20;49.95;102242.75;5029326;28;20561;-74
2022/03/17 00:27:32;;;;;;;85.63;46.85;;;;;;;8.99;50.48;102246.97;5016419;28;20053;-74
2022/03/17 00:29:59;;;;;;;81.45;45.53;;;;;;;9.41;49.23;102251.03;5024777;28;20152;-74
2022/03/17 00:32:26;;;;;;;79.13;44.25;;;;;;;9.25;49.51;102250.44;5015447;28;20401;-74
2022/03/17 00:37:37;;;;;;;79.55;44.15;;;;;;;9.39;48.93;102250.25;4991596;28;20052;-73
2022/03/17 00:40:05;;;;;;;83.72;44.25;;;;;;;9.05;49.86;102241.19;5005910;28;20163;-74
2022/03/17 00:42:31;;;;;;;80.22;44.63;;;;;;;8.94;50.32;102243.78;5034657;28;20128;-74
2022/03/17 00:44:59;;;;;;;83.32;45.45;;;;;;;8.98;50.29;102239.91;5034959;28;20045;-74
2022/03/17 00:47:25;;;;;;;79.72;44.95;;;;;;;8.97;50.20;102247.09;5035567;28;20073;-74
2022/03/17 00:49:52;;;;;;;80.18;43.22;;;;;;;9.02;50.23;102242.28;5023474;28;20133;-74
2022/03/17 00:52:20;;;;;;;86.30;46.25;;;;;;;8.98;50.03;102239.91;5032417;28;20187;-74
2022/03/17 00:54:47;;;;;;;83.90;45.13;;;;;;;8.79;50.36;102243.94;5017275;28;20053;-74
2022/03/17 00:57:14;;;;;;;91.47;48.88;;;;;;;9.38;48.96;102245.03;5034791;28;20069;-74
2022/03/17 00:59:40;;;;;;;91.20;46.38;;;;;;;8.84;50.29;102236.44;5024746;28;20467;-73
2022/03/17 01:02:07;;;;;;;83.30;45.97;;;;;;;8.00;52.30;102231.75;5013882;28;20140;-74
2022/03/17 01:04:35;;;;;;;84.55;44.75;;;;;;;8.41;51.55;102229.81;5015078;28;20478;-73
2022/03/17 01:07:02;;;;;;;85.10;45.15;;;;;;;8.56;50.83;102240.25;5011401;28;20485;-74
2022/03/17 01:09:29;;;;;;;85.57;47.90;;;;;;;8.88;50.15;102234.38;5016626;28;20128;-73
2022/03/17 01:11:56;;;;;;;82.47;45.25;;;;;;;8.21;52.36;102225.84;5033338;28;20077;-73
2022/03/17 01:14:22;;;;;;;88.07;47.88;;;;;;;8.22;52.25;102230.22;5034639;28;20073;-73
2022/03/17 01:16:50;;;;;;;88.47;46.58;;;;;;;8.27;51.49;102233.47;5018888;28;20108;-74
2022/03/17 01:19:19;;;;;;;82.80;47.65;;;;;;;7.86;53.02;102234.50;5014859;28;20159;-73
2022/03/17 01:21:47;;;;;;;87.72;49.40;;;;;;;8.26;51.97;102232.59;5014613;28;20049;-74
2022/03/17 01:24:14;;;;;;;86.75;46.60;;;;;;;8.65;50.78;102236.06;5014858;28;20074;-73
2022/03/17 01:26:40;;;;;;;86.60;46.97;;;;;;;8.36;51.45;102233.66;5014966;28;20486;-73
2022/03/17 01:29:07;;;;;;;89.60;47.30;;;;;;;7.49;53.55;102231.63;5014489;28;20121;-74
2022/03/17 01:31:34;;;;;;;87.78;47.03;;;;;;;8.08;52.09;102232.06;5014182;28;20197;-73
2022/03/17 01:34:00;;;;;;;88.60;47.28;;;;;;;7.63;53.25;102226.22;5014326;28;20045;-73
2022/03/17 01:36:27;;;;;;;81.47;46.90;;;;;;;8.24;51.56;102234.53;5013708;28;20105;-74
2022/03/17 01:38:53;;;;;;;89.88;47.97;;;;;;;8.00;52.00;102233.56;5017891;28;20119;-74
2022/03/17 01:41:20;;;;;;;94.93;49.22;;;;;;;8.17;51.91;102227.91;5033724;28;20064;-73
2022/03/17 01:43:46;;;;;;;89.75;46.75;;;;;;;7.56;53.53;102219.56;5034243;28;20485;-74
2022/03/17 01:46:15;;;;;;;89.70;49.38;;;;;;;8.04;52.00;102221.69;5033014;28;20531;-73
2022/03/17 01:48:42;;;;;;;87.10;47.67;;;;;;;8.04;51.91;102222.53;5033766;28;20136;-73
2022/03/17 01:51:10;;;;;;;90.30;47.80;;;;;;;8.22;51.71;102224.88;5033275;28;20041;-74
2022/03/17 01:53:36;;;;;;;89.25;48.72;;;;;;;8.56;50.38;102224.19;5033926;28;20061;-73
2022/03/17 01:56:03;;;;;;;87.63;48.05;;;;;;;8.10;51.32;102221.28;5034093;28;20049;-73
2022/03/17 01:58:31;;;;;;;93.93;49.25;;;;;;;8.28;51.03;102216.44;5016591;28;20045;-73
2022/03/17 02:00:58;;;;;;;94.72;50.22;;;;;;;8.21;51.26;102209.81;5034404;28;20049;-74
2022/03/17 02:03:27;;;;;;;93.35;50.35;;;;;;;7.77;52.25;102219.91;5034464;28;20033;-73
2022/03/17 02:09:35;;;;;;;93.35;49.03;;;;;;;8.26;50.62;102210.34;5032307;28;20048;-74
2022/03/17 02:14:55;;;;;;;88.45;49.20;;;;;;;8.84;49.50;102200.78;5030137;28;20061;-74
2022/03/17 02:17:22;;;;;;;105.40;51.35;;;;;;;8.45;49.85;102212.56;5016508;28;20129;-74
2022/03/17 02:19:50;;;;;;;100.07;52.45;;;;;;;8.08;51.22;102199.97;5014437;28;20064;-74
2022/03/17 02:22:21;;;;;;;115.18;60.40;;;;;;;8.03;50.87;102202.13;5014591;28;20096;-75
2022/03/17 02:27:42;;;;;;;189.05;95.68;;;;;;;8.66;49.16;102199.47;5013081;28;20144;-74
2022/03/17 02:30:10;;;;;;;205.32;103.32;;;;;;;8.69;48.90;102186.72;5013479;28;20088;-74
2022/03/17 02:32:37;;;;;;;216.30;109.32;;;;;;;8.64;49.10;102194.22;5013199;28;20073;-74
2022/03/17 02:35:07;;;;;;;220.05;107.15;;;;;;;8.53;49.58;102196.81;5011542;28;20133;-74
2022/03/17 02:37:33;;;;;;;207.68;104.72;;;;;;;8.66;48.89;102196.78;4998173;28;20058;-74
2022/03/17 02:40:04;;;;;;;194.52;94.57;;;;;;;8.61;48.79;102199.81;4993721;28;20046;-74
2022/03/17 02:42:31;;;;;;;165.23;83.30;;;;;;;8.34;49.82;102194.63;4993356;28;20050;-74
2022/03/17 02:44:59;;;;;;;165.32;85.07;;;;;;;8.50;49.06;102192.53;4994497;28;20293;-74
2022/03/17 02:47:26;;;;;;;155.52;80.90;;;;;;;8.20;49.79;102184.06;4993027;28;20046;-74
2022/03/17 02:49:57;;;;;;;156.75;78.35;;;;;;;8.04;50.33;102178.94;5001586;28;20108;-74
2022/03/17 02:52:26;;;;;;;162.75;75.15;;;;;;;8.73;48.33;102184.66;4996091;28;20058;-74
2022/03/17 02:54:53;;;;;;;142.55;71.53;;;;;;;8.35;49.50;102182.94;5013454;28;20132;-74
2022/03/17 02:57:20;;;;;;;142.38;70.90;;;;;;;8.27;49.20;102175.47;5013740;28;20133;-74
2022/03/17 02:59:48;;;;;;;139.90;73.80;;;;;;;8.59;48.60;102170.47;5012956;28;20069;-74
2022/03/17 03:02:15;;;;;;;138.57;68.50;;;;;;;8.27;49.36;102175.47;5010936;28;20069;-74
2022/03/17 03:04:42;;;;;;;136.15;64.63;;;;;;;7.96;50.27;102167.94;5010056;28;20104;-74
2022/03/17 03:07:09;;;;;;;135.70;65.43;;;;;;;8.19;49.58;102176.97;5012512;28;20145;-74
2022/03/17 03:09:36;;;;;;;132.65;65.53;;;;;;;7.77;50.44;102163.81;5011847;28;20069;-74
2022/03/17 03:12:02;;;;;;;123.47;63.22;;;;;;;7.41;51.57;102164.56;5008328;28;20137;-74
2022/03/17 03:14:29;;;;;;;134.68;65.13;;;;;;;7.75;50.85;102163.09;5012884;28;20045;-74
2022/03/17 03:16:56;;;;;;;122.60;60.53;;;;;;;8.07;49.80;102173.38;5008769;28;20153;-74
2022/03/17 03:19:24;;;;;;;121.72;61.42;;;;;;;7.95;49.82;102164.41;5013402;28;20045;-74
2022/03/17 03:21:50;;;;;;;119.72;60.35;;;;;;;8.00;49.66;102166.75;5008500;28;20470;-74
2022/03/17 03:24:17;;;;;;;117.60;60.20;;;;;;;8.02;49.45;102170.16;5021285;28;20125;-74
2022/03/17 03:26:44;;;;;;;109.97;57.60;;;;;;;8.78;47.55;102174.47;5024801;28;20458;-74
2022/03/17 03:29:27;;;;;;;116.53;57.13;;;;;;;8.75;47.41;102175.56;5032360;28;20473;-74
2022/03/17 03:31:56;;;;;;;97.25;54.90;;;;;;;8.90;46.44;102183.44;4992149;28;20477;-74
2022/03/17 03:34:24;;;;;;;109.82;56.97;;;;;;;9.03;46.74;102182.41;4992925;28;20046;-74
2022/03/17 03:39:38;;;;;;;95.88;54.88;;;;;;;8.63;47.52;102175.59;5028622;28;20041;-74
2022/03/17 03:42:07;;;;;;;97.63;54.55;;;;;;;8.85;46.73;102173.94;4997133;28;20066;-74
2022/03/17 03:44:34;;;;;;;101.35;55.22;;;;;;;8.43;47.64;102175.22;4992937;28;20066;-74
2022/03/17 03:47:00;;;;;;;99.18;54.63;;;;;;;8.58;47.41;102174.13;4986186;28;20050;-74
2022/03/17 03:49:27;;;;;;;93.97;53.88;;;;;;;9.20;45.81;102169.59;4992889;28;20061;-74
2022/03/17 03:51:53;;;;;;;100.43;52.97;;;;;;;9.12;45.83;102167.47;4992946;28;20057;-74
2022/03/17 03:54:20;;;;;;;105.22;54.20;;;;;;;8.79;46.76;102171.69;4993326;28;20124;-74
2022/03/17 03:56:49;;;;;;;98.35;52.92;;;;;;;8.65;46.84;102173.69;4992359;28;20579;-74
2022/03/17 03:59:19;;;;;;;94.03;52.83;;;;;;;8.59;46.90;102170.47;4992709;28;20505;-74
2022/03/17 04:01:47;;;;;;;98.15;54.55;;;;;;;8.33;46.92;102174.16;4992762;28;20084;-74
2022/03/17 04:04:17;;;;;;;90.18;52.50;;;;;;;8.35;47.06;102177.59;4992514;28;20046;-74
2022/03/17 04:06:46;;;;;;;90.95;52.88;;;;;;;8.73;46.38;102185.53;4992642;28;20454;-74
2022/03/17 04:09:13;;;;;;;101.38;54.35;;;;;;;8.95;45.94;102182.09;4994484;28;20184;-74
2022/03/17 04:11:44;;;;;;;90.68;53.03;;;;;;;8.70;46.26;102172.38;4999256;28;20080;-74
2022/03/17 04:14:12;;;;;;;99.67;53.77;;;;;;;8.86;45.77;102166.75;5008035;28;20137;-74
2022/03/17 04:16:39;;;;;;;97.32;52.42;;;;;;;8.25;46.93;102176.56;5012325;28;20068;-74
2022/03/17 04:19:06;;;;;;;96.72;55.00;;;;;;;8.66;45.87;102165.53;5007807;28;20061;-74
2022/03/17 04:21:32;;;;;;;91.60;54.10;;;;;;;8.53;45.98;102162.88;5011639;28;20080;-74
2022/03/17 04:23:59;;;;;;;96.88;52.70;;;;;;;8.21;46.85;102165.22;5011845;28;20100;-74
2022/03/17 04:26:26;;;;;;;98.60;55.00;;;;;;;8.46;46.62;102163.44;5012000;28;20069;-74
2022/03/17 04:28:53;;;;;;;103.18;54.75;;;;;;;8.47;46.23;102165.16;5011941;28;20073;-74
2022/03/17 04:31:23;;;;;;;94.15;56.17;;;;;;;8.53;45.90;102164.72;5011902;28;20042;-74
2022/03/17 04:33:50;;;;;;;96.68;55.25;;;;;;;8.17;47.10;102173.59;5006490;28;20042;-74
2022/03/17 04:36:18;;;;;;;101.50;56.80;;;;;;;7.97;47.26;102177.66;4988284;28;20125;-74
2022/03/17 04:38:44;;;;;;;102.03;56.88;;;;;;;8.88;45.24;102174.66;4991500;28;20557;-74
2022/03/17 04:41:12;;;;;;;104.55;56.03;;;;;;;8.82;45.31;102166.13;4991699;28;20546;-74
2022/03/17 04:43:39;;;;;;;104.80;58.20;;;;;;;8.66;45.58;102180.75;4992726;28;20054;-74
2022/03/17 04:46:07;;;;;;;98.60;55.80;;;;;;;8.38;45.93;102182.72;5005785;28;20560;-74
2022/03/17 04:48:35;;;;;;;104.65;56.60;;;;;;;8.88;45.22;102175.50;5011617;28;20530;-74
2022/03/17 04:51:02;;;;;;;95.15;54.95;;;;;;;8.30;46.03;102174.41;5014721;28;20434;-74
2022/03/17 04:53:30;;;;;;;98.65;57.22;;;;;;;8.29;46.10;102172.69;5014507;28;20128;-74
2022/03/17 04:55:57;;;;;;;105.35;57.28;;;;;;;8.18;46.54;102180.63;5011943;28;20041;-75
2022/03/17 04:58:24;;;;;;;104.63;57.75;;;;;;;8.30;46.19;102185.13;5011977;28;20125;-74
2022/03/17 05:00:52;;;;;;;104.30;57.00;;;;;;;7.89;46.96;102186.22;5012012;28;20045;-74
2022/03/17 05:03:19;;;;;;;102.82;57.13;;;;;;;8.63;45.33;102188.97;5007799;28;20046;-74
2022/03/17 05:05:47;;;;;;;111.55;59.17;;;;;;;8.03;46.53;102171.88;5011687;28;20046;-74
2022/03/17 05:08:14;;;;;;;104.20;57.65;;;;;;;7.75;47.84;102187.13;5007241;28;20056;-74
2022/03/17 05:10:41;;;;;;;111.25;58.72;;;;;;;8.64;45.18;102193.34;5011810;28;20553;-74
2022/03/17 05:13:09;;;;;;;102.57;58.28;;;;;;;8.29;46.03;102199.44;5011762;28;20463;-74
2022/03/17 05:15:36;;;;;;;104.65;58.78;;;;;;;7.63;47.68;102202.16;5011345;28;20171;-74
2022/03/17 05:18:07;;;;;;;106.45;57.90;;;;;;;8.24;46.08;102197.09;5011400;28;20049;-74
2022/03/17 05:20:35;;;;;;;106.65;59.60;;;;;;;7.99;46.59;102203.31;5011572;28;20081;-75
2022/03/17 05:23:08;;;;;;;111.93;61.22;;;;;;;8.70;45.30;102191.09;5011741;28;20066;-74
2022/03/17 05:25:35;;;;;;;107.03;59.33;;;;;;;8.21;46.19;102185.75;5014236;28;20130;-74
2022/03/17 05:28:02;;;;;;;111.57;61.08;;;;;;;8.20;46.07;102189.41;5014670;28;20080;-74
2022/03/17 05:30:28;;;;;;;111.72;60.45;;;;;;;8.41;45.77;102192.38;5010785;28;20077;-75
2022/03/17 05:32:55;;;;;;;122.30;60.65;;;;;;;7.99;46.56;102200.63;5013477;28;20046;-74
2022/03/17 05:35:22;;;;;;;170.23;66.72;;;;;;;8.34;46.13;102197.28;5015686;28;20073;-74
2022/03/17 05:37:48;;;;;;;133.43;64.35;;;;;;;8.48;45.65;102205.19;5015287;28;20081;-74
2022/03/17 05:40:15;;;;;;;122.20;60.45;;;;;;;8.24;46.00;102206.94;5014226;28;20048;-74
2022/03/17 05:42:47;;;;;;;110.78;61.35;;;;;;;8.52;45.64;102193.28;5014830;28;20042;-73
2022/03/17 05:45:15;;;;;;;114.82;62.47;;;;;;;8.74;45.31;102189.03;5015011;28;20558;-74
2022/03/17 05:47:44;;;;;;;113.57;61.60;;;;;;;8.66;44.85;102202.13;5014781;28;20069;-75
2022/03/17 05:50:13;;;;;;;114.32;64.13;;;;;;;8.63;45.12;102203.22;5014688;28;20080;-74
2022/03/17 05:52:43;;;;;;;106.03;62.17;;;;;;;8.52;45.33;102212.00;5014962;28;20132;-74
2022/03/17 05:55:12;;;;;;;121.80;63.45;;;;;;;8.73;44.88;102198.91;5013611;28;20096;-75
2022/03/17 05:57:40;;;;;;;116.38;63.65;;;;;;;8.55;45.37;102210.94;5010529;28;20116;-74
2022/03/17 06:00:09;;;;;;;115.30;63.47;;;;;;;8.28;46.09;102200.41;5014122;28;20058;-74
2022/03/17 06:02:36;;;;;;;113.90;62.17;;;;;;;7.62;47.32;102202.28;5014411;28;20073;-74
2022/03/17 06:05:04;;;;;;;114.65;62.58;;;;;;;8.60;45.15;102216.81;5014277;28;20054;-74
2022/03/17 06:07:42;;;;;;;118.35;63.53;;;;;;;8.80;44.81;102210.84;5015197;28;20069;-74
2022/03/17 06:10:13;;;;;;;120.53;64.22;;;;;;;7.99;46.71;102214.00;5014099;28;20050;-75
2022/03/17 06:12:41;;;;;;;116.47;64.18;;;;;;;8.43;45.34;102215.34;5010457;28;20466;-74
2022/03/17 06:15:08;;;;;;;118.65;64.93;;;;;;;8.63;44.83;102213.91;5014508;28;20069;-74
2022/03/17 06:17:42;;;;;;;116.10;62.88;;;;;;;8.34;45.83;102208.00;5014046;28;20069;-74
2022/03/17 06:20:12;;;;;;;118.25;63.88;;;;;;;8.49;45.52;102214.06;5014076;28;20045;-74
2022/03/17 06:22:43;;;;;;;119.60;65.90;;;;;;;8.81;44.80;102207.22;5014298;28;20065;-74
2022/03/17 06:25:14;;;;;;;116.03;63.45;;;;;;;8.23;46.03;102211.44;5014167;28;20081;-74
2022/03/17 06:27:44;;;;;;;119.55;64.25;;;;;;;8.47;45.62;102216.84;5014468;28;20449;-74
2022/03/17 06:30:14;;;;;;;125.13;66.88;;;;;;;8.56;45.40;102215.31;5014169;28;20120;-74
2022/03/17 06:32:41;;;;;;;119.00;66.63;;;;;;;8.01;46.83;102206.72;5015986;28;20129;-74
2022/03/17 06:35:14;;;;;;;123.03;67.32;;;;;;;8.76;45.01;102213.88;5016342;28;20125;-74
2022/03/17 06:37:42;;;;;;;129.38;69.32;;;;;;;8.25;45.93;102212.16;5016368;28;20072;-74
2022/03/17 06:40:11;;;;;;;121.15;67.20;;;;;;;8.48;45.36;102210.53;5016550;28;20485;-74
2022/03/17 06:42:38;;;;;;;125.43;69.03;;;;;;;8.21;46.00;102201.81;5015578;28;20103;-74
2022/03/17 06:45:05;;;;;;;115.75;66.30;;;;;;;8.20;46.31;102205.44;5014851;28;20073;-74
2022/03/17 06:47:32;;;;;;;122.38;66.78;;;;;;;8.27;46.20;102204.03;5014282;28;20451;-74
2022/03/17 06:49:58;;;;;;;126.00;70.45;;;;;;;8.57;45.30;102215.22;5033084;28;20485;-74
2022/03/17 06:52:25;;;;;;;112.28;67.25;;;;;;;8.32;46.35;102201.88;5039941;28;20129;-74
2022/03/17 06:54:54;;;;;;;122.97;69.93;;;;;;;7.88;46.92;102201.41;5034131;28;20137;-73
2022/03/17 06:57:22;;;;;;;118.57;68.78;;;;;;;8.11;46.48;102207.78;5033972;28;20136;-73
2022/03/17 06:59:50;;;;;;;120.22;68.03;;;;;;;8.47;45.26;102208.81;5033149;28;20045;-73
2022/03/17 07:02:17;;;;;;;136.00;72.18;;;;;;;8.65;45.24;102208.47;5034896;28;20079;-73
2022/03/17 07:04:46;;;;;;;126.65;69.57;;;;;;;8.90;44.66;102204.84;5033246;28;20049;-73
2022/03/17 07:07:13;;;;;;;130.95;69.93;;;;;;;9.15;44.19;102195.84;5029457;28;20073;-73
2022/03/17 07:09:43;;;;;;;123.15;68.05;;;;;;;9.47;43.36;102207.69;5028602;28;20086;-73
2022/03/17 07:12:13;;;;;;;118.03;68.38;;;;;;;9.22;44.02;102205.13;5034928;28;20533;-73
2022/03/17 07:14:39;;;;;;;129.57;69.43;;;;;;;8.85;44.86;102203.38;5033542;28;20068;-73
2022/03/17 07:17:06;;;;;;;121.95;66.82;;;;;;;8.75;44.90;102209.50;5033117;28;20171;-73
2022/03/17 07:19:35;;;;;;;120.10;66.60;;;;;;;8.85;44.83;102207.88;5015018;28;20053;-73
2022/03/17 07:22:03;;;;;;;122.97;67.60;;;;;;;9.27;44.07;102200.31;5021982;28;20079;-73
2022/03/17 07:24:29;;;;;;;119.22;69.15;;;;;;;9.27;43.33;102203.00;5031932;28;20450;-73
2022/03/17 07:26:58;;;;;;;124.22;68.85;;;;;;;9.62;43.13;102208.34;5032298;28;20061;-73
2022/03/17 07:29:25;;;;;;;125.60;69.25;;;;;;;9.52;43.20;102212.69;5029032;28;20045;-73
2022/03/17 07:31:54;;;;;;;128.70;69.57;;;;;;;9.83;42.88;102210.34;5032308;28;20163;-73
2022/03/17 07:34:21;;;;;;;115.15;66.07;;;;;;;9.25;43.60;102204.94;5032504;28;20049;-72
2022/03/17 07:36:47;;;;;;;125.43;71.20;;;;;;;9.53;43.10;102207.22;5032689;28;20068;-73
2022/03/17 07:39:14;;;;;;;120.38;68.57;;;;;;;9.74;42.92;102211.91;5032386;28;20041;-73
2022/03/17 07:41:40;;;;;;;123.75;70.20;;;;;;;9.29;43.82;102207.25;5032327;28;20045;-73
2022/03/17 07:44:07;;;;;;;127.55;68.80;;;;;;;9.80;42.63;102212.28;5032653;28;20047;-73
2022/03/17 07:46:33;;;;;;;120.05;68.35;;;;;;;9.61;43.03;102216.50;5031768;28;20049;-73
2022/03/17 07:49:00;;;;;;;121.72;67.32;;;;;;;9.02;44.06;102226.22;5031956;28;20044;-73
2022/03/17 07:51:27;;;;;;;125.03;68.30;;;;;;;9.41;43.57;102226.06;5031666;28;20065;-73
2022/03/17 07:53:53;;;;;;;116.85;67.88;;;;;;;8.99;44.55;102226.44;5032206;28;20077;-73
2022/03/17 07:56:20;;;;;;;125.72;69.60;;;;;;;8.99;44.66;102225.56;5021724;28;20614;-73
2022/03/17 07:58:47;;;;;;;117.88;69.60;;;;;;;8.49;45.54;102238.97;5014870;28;20060;-72
2022/03/17 08:01:15;;;;;;;112.63;67.72;;;;;;;8.21;45.70;102245.44;5032049;28;20478;-73
2022/03/17 08:03:41;;;;;;;120.78;68.60;;;;;;;9.54;43.73;102242.88;5031955;28;20052;-73
2022/03/17 08:06:09;;;;;;;126.13;71.07;;;;;;;9.00;44.52;102236.16;5032254;28;20045;-71
2022/03/17 08:08:35;;;;;;;123.72;69.63;;;;;;;9.12;44.14;102241.56;5031783;28;20452;-72
2022/03/17 08:11:02;;;;;;;124.15;69.78;;;;;;;9.42;43.57;102243.84;5031952;28;20055;-72
2022/03/17 08:13:28;;;;;;;120.68;68.43;;;;;;;9.50;43.49;102244.09;5031349;28;20124;-71
2022/03/17 08:15:55;;;;;;;119.18;67.07;;;;;;;9.12;44.49;102239.75;5031459;28;20128;-71
2022/03/17 08:18:21;;;;;;;120.65;68.18;;;;;;;9.13;44.38;102238.81;5017586;28;20560;-72
2022/03/17 08:20:48;;;;;;;123.15;68.75;;;;;;;9.20;44.44;102240.06;5011554;28;20081;-72
2022/03/17 08:23:21;;;;;;;120.78;69.60;;;;;;;9.24;43.99;102225.50;5012088;28;20128;-71
2022/03/17 08:25:49;;;;;;;131.75;70.15;;;;;;;9.54;43.47;102227.69;5011636;28;20074;-71
2022/03/17 08:28:19;;;;;;;119.63;69.45;;;;;;;9.41;43.98;102216.19;5011573;28;20134;-72
2022/03/17 08:30:47;;;;;;;119.22;71.20;;;;;;;9.02;45.11;102211.94;5010421;28;20189;-72
2022/03/17 08:33:14;;;;;;;115.00;67.00;;;;;;;9.75;43.17;102210.91;5010829;28;20556;-72
2022/03/17 08:35:42;;;;;;;122.25;70.72;;;;;;;9.95;42.90;102220.94;5011392;28;20478;-71
2022/03/17 08:38:09;;;;;;;113.70;66.65;;;;;;;9.75;43.41;102216.28;5011333;28;20057;-73
2022/03/17 08:40:38;;;;;;;120.40;69.15;;;;;;;10.29;41.89;102215.63;4993426;28;20041;-72
2022/03/17 08:43:06;;;;;;;116.28;69.05;;;;;;;10.21;42.13;102220.75;5016538;28;20129;-72
2022/03/17 08:51:03;;;;;;;112.80;68.25;;;;;;;10.13;42.45;102210.63;5031768;28;20260;-72
2022/03/17 08:53:30;;;;;;;123.88;70.68;;;;;;;9.84;42.67;102220.94;5027031;28;20080;-72
2022/03/17 08:55:57;;;;;;;124.47;68.70;;;;;;;9.85;42.89;102214.59;5030734;28;20046;-72
2022/03/17 08:58:24;;;;;;;111.97;65.78;;;;;;;9.74;42.90;102219.94;5014059;28;20413;-72
2022/03/17 09:00:50;;;;;;;115.13;67.47;;;;;;;9.65;43.29;102213.47;5033149;28;20149;-72
2022/03/17 09:03:18;;;;;;;120.50;66.88;;;;;;;10.15;42.37;102221.22;5035423;28;20041;-72
2022/03/17 09:05:45;;;;;;;112.93;66.97;;;;;;;9.95;42.93;102214.75;5025990;28;20045;-71
2022/03/17 09:08:12;;;;;;;109.97;64.10;;;;;;;10.43;41.80;102215.38;5035521;28;20124;-74
2022/03/17 09:10:39;;;;;;;109.82;64.32;;;;;;;9.26;44.37;102222.69;5035840;28;20053;-74
2022/03/17 09:13:07;;;;;;;110.30;63.45;;;;;;;9.33;43.79;102221.25;5034682;28;20128;-75
2022/03/17 09:15:40;;;;;;;117.90;66.68;;;;;;;9.89;42.90;102220.56;5033124;28;20053;-75
2022/03/17 09:18:11;;;;;;;111.65;63.88;;;;;;;9.71;43.51;102228.22;5034939;28;20046;-73
2022/03/17 09:20:39;;;;;;;115.43;65.47;;;;;;;9.14;44.80;102223.59;5034467;28;20119;-74
2022/03/17 09:23:06;;;;;;;115.18;66.95;;;;;;;9.87;42.93;102218.03;5030617;28;20124;-74
2022/03/17 09:25:33;;;;;;;107.43;62.55;;;;;;;9.73;43.16;102215.56;5034972;28;20045;-74
2022/03/17 09:28:02;;;;;;;109.28;65.05;;;;;;;10.24;42.32;102209.78;5034608;28;20045;-75
2022/03/17 09:30:29;;;;;;;111.90;63.78;;;;;;;9.02;44.75;102222.66;5032075;28;20125;-75
2022/03/17 09:32:58;;;;;;;109.35;63.97;;;;;;;9.56;43.60;102217.69;5019852;28;20125;-75
2022/03/17 09:35:26;;;;;;;115.50;64.85;;;;;;;9.61;43.86;102227.19;5015625;28;20457;-75
2022/03/17 09:37:52;;;;;;;111.68;64.63;;;;;;;9.71;43.04;102228.22;5014431;28;20121;-75
2022/03/17 09:40:19;;;;;;;112.72;64.97;;;;;;;9.55;43.63;102212.47;5014823;28;20056;-76
2022/03/17 09:42:45;;;;;;;109.82;63.78;;;;;;;9.53;43.49;102222.44;5015804;28;20470;-74
2022/03/17 09:45:12;;;;;;;106.90;63.67;;;;;;;9.57;43.69;102226.59;5020673;28;20065;-75
2022/03/17 09:47:41;;;;;;;103.93;61.88;;;;;;;9.97;42.81;102221.69;5030102;28;20450;-76
2022/03/17 09:50:09;;;;;;;109.20;63.13;;;;;;;9.41;43.86;102221.56;5034824;28;20490;-77
2022/03/17 09:52:37;;;;;;;111.80;61.75;;;;;;;10.25;41.99;102228.44;5034437;28;20065;-76
2022/03/17 09:55:04;;;;;;;102.93;62.42;;;;;;;9.89;42.55;102231.28;5034717;28;20140;-76
2022/03/17 09:57:32;;;;;;;99.22;60.95;;;;;;;9.13;44.65;102237.91;5033936;28;20132;-76
2022/03/17 10:00:00;;;;;;;107.38;61.75;;;;;;;9.78;43.04;102242.84;5034507;28;20041;-75
2022/03/17 10:02:27;;;;;;;103.65;62.55;;;;;;;9.76;43.04;102245.66;5034075;28;20042;-75
2022/03/17 10:04:53;;;;;;;101.90;60.28;;;;;;;8.84;44.94;102246.28;5017000;28;20049;-75
2022/03/17 10:07:21;;;;;;;109.35;60.88;;;;;;;9.35;43.93;102237.22;5034601;28;20533;-75
2022/03/17 10:09:50;;;;;;;104.70;59.67;;;;;;;10.28;42.14;102240.75;5034181;28;20041;-75
2022/03/17 10:12:20;;;;;;;103.55;61.30;;;;;;;9.98;42.57;102241.31;5034077;28;20041;-72
2022/03/17 10:14:49;;;;;;;99.75;60.65;;;;;;;9.79;43.03;102247.25;5029168;28;20053;-72
2022/03/17 10:17:39;;;;;;;107.65;61.33;;;;;;;9.93;42.93;102243.50;5034315;28;20065;-72
2022/03/17 10:20:25;;;;;;;101.88;59.75;;;;;;;10.80;40.65;102254.53;5033904;28;20444;-72
2022/03/17 10:22:56;;;;;;;99.07;58.70;;;;;;;10.21;41.90;102252.94;5030628;28;20073;-72
2022/03/17 10:25:29;;;;;;;106.40;61.97;;;;;;;8.94;44.56;102255.34;5016357;28;20069;-72
2022/03/17 10:27:57;;;;;;;96.63;57.63;;;;;;;9.72;42.77;102264.78;5013139;28;20049;-72
2022/03/17 10:30:35;;;;;;;104.03;61.22;;;;;;;10.86;40.67;102268.31;5012954;28;20049;-72
2022/03/17 10:33:09;;;;;;;103.28;58.63;;;;;;;9.42;43.92;102252.72;5012937;28;20049;-72
2022/03/17 10:35:38;;;;;;;97.25;57.83;;;;;;;11.27;39.95;102258.69;5012923;28;20069;-72
2022/03/17 10:38:13;;;;;;;98.50;58.95;;;;;;;11.21;39.88;102256.53;5013090;28;20100;-72
2022/03/17 10:40:41;;;;;;;97.00;58.17;;;;;;;10.51;41.21;102249.66;5014092;28;20076;-72
2022/03/17 10:43:24;;;;;;;89.78;57.28;;;;;;;10.86;40.42;102268.31;5014342;28;22032;-72
2022/03/17 10:46:16;;;;;;;97.70;56.47;;;;;;;10.46;41.41;102257.22;5029276;28;20061;-72
2022/03/17 10:48:54;;;;;;;98.93;57.60;;;;;;;11.30;39.37;102265.66;5004267;28;20121;-72
2022/03/17 10:51:34;;;;;;;91.68;55.03;;;;;;;10.67;40.34;102263.56;5013119;28;20088;-73
2022/03/17 10:54:08;;;;;;;100.10;55.45;;;;;;;10.94;39.64;102267.69;5012604;28;20125;-72
2022/03/17 10:56:37;;;;;;;98.93;54.70;;;;;;;10.65;40.04;102254.81;5012789;28;20073;-72
2022/03/17 10:59:05;;;;;;;89.88;53.22;;;;;;;11.90;37.85;102258.81;5006087;28;20048;-72
2022/03/17 11:01:45;;;;;;;89.82;53.75;;;;;;;11.28;39.04;102255.03;4998242;28;20046;-72
2022/03/17 11:04:12;;;;;;;89.80;54.55;;;;;;;11.20;38.70;102252.97;5013112;28;20068;-72
2022/03/17 11:06:40;;;;;;;93.50;53.78;;;;;;;10.69;39.48;102258.09;5012689;28;20042;-72
2022/03/17 11:09:10;;;;;;;86.38;53.15;;;;;;;11.78;37.46;102249.94;5012894;28;20041;-72
2022/03/17 11:11:38;;;;;;;81.00;50.83;;;;;;;11.58;37.63;102250.75;5012997;28;20088;-73
2022/03/17 11:14:06;;;;;;;92.72;53.28;;;;;;;11.22;38.42;102251.00;5013293;28;20049;-73
2022/03/17 11:16:43;;;;;;;84.93;51.67;;;;;;;12.25;36.46;102246.84;5012101;28;20133;-73
2022/03/17 11:19:15;;;;;;;91.40;52.67;;;;;;;12.01;37.03;102250.66;5013450;28;20125;-73
2022/03/17 11:21:46;;;;;;;85.32;52.70;;;;;;;11.48;37.79;102253.34;5012647;28;22238;-73
2022/03/17 11:24:21;;;;;;;89.70;52.33;;;;;;;11.20;38.32;102250.28;5012669;28;20065;-73
2022/03/17 11:26:49;;;;;;;78.38;49.78;;;;;;;12.17;36.75;102258.25;5013083;28;20057;-73
2022/03/17 11:29:18;;;;;;;80.25;49.72;;;;;;;11.80;37.20;102258.75;5012758;28;20046;-73
2022/03/17 11:31:56;;;;;;;93.57;51.13;;;;;;;11.75;37.32;102247.50;5012311;28;20053;-73
2022/03/17 11:34:48;;;;;;;80.07;50.63;;;;;;;11.61;37.62;102248.66;5002835;28;20048;-73
2022/03/17 11:37:16;;;;;;;;;;;;;;;10.87;38.46;102245.00;5011116;28;20124;-73